Time;durP1;ratioP1;P1;durP2;ratioP2;P2;SDS_P1;SDS_P2;PMS_P1;PMS_P2;Temp;Humidity;BMP_temperature;BMP_pressure;BME280_temperature;BME280_humidity;BME280_pressure;Samples;Min_cycle;Max_cycle;Signal;HPM_P1;HPM_P2
2023/07/15 00:00:31;;;;;;;3.45;2.05;;;28.00;78.50;;;;;;10848820;32;20036;-73
2023/07/15 00:06:33;;;;;;;4.62;1.98;;;27.90;78.50;;;;;;10853293;32;20055;-73
2023/07/15 00:12:35;;;;;;;3.75;2.08;;;27.90;78.60;;;;;;10866850;32;20065;-73
2023/07/15 00:18:37;;;;;;;6.28;2.65;;;27.90;78.40;;;;;;10866531;32;20050;-73
2023/07/15 00:24:39;;;;;;;4.90;3.03;;;27.80;78.50;;;;;;10864002;32;20054;-73
2023/07/15 00:30:41;;;;;;;3.42;2.35;;;27.80;78.40;;;;;;10865646;32;20054;-73
2023/07/15 00:36:44;;;;;;;3.97;2.58;;;27.80;78.40;;;;;;10866295;32;20318;-73
2023/07/15 00:43:23;;;;;;;4.45;3.08;;;27.80;78.40;;;;;;10866118;32;20042;-73
2023/07/15 00:49:34;;;;;;;5.55;2.45;;;27.80;78.40;;;;;;10866165;32;20485;-73
2023/07/15 00:55:37;;;;;;;4.07;2.35;;;27.70;78.70;;;;;;10865982;32;20020;-73
2023/07/15 01:01:40;;;;;;;4.80;2.37;;;27.60;78.70;;;;;;10864325;32;20429;-73
2023/07/15 01:07:42;;;;;;;7.95;3.33;;;27.50;78.70;;;;;;10869607;32;20050;-73
2023/07/15 01:13:54;;;;;;;4.15;2.72;;;27.40;78.80;;;;;;10859746;32;20047;-73
2023/07/15 01:19:56;;;;;;;6.35;3.33;;;27.50;78.50;;;;;;10872228;32;20015;-73
2023/07/15 01:26:01;;;;;;;5.90;3.28;;;27.40;78.70;;;;;;10872010;32;20045;-73
2023/07/15 01:32:03;;;;;;;5.05;2.75;;;27.20;78.90;;;;;;10871756;32;20056;-73
2023/07/15 01:38:05;;;;;;;8.43;3.65;;;27.20;79.00;;;;;;10856894;32;20300;-73
2023/07/15 01:44:07;;;;;;;5.97;3.22;;;27.10;79.20;;;;;;10871281;32;20036;-73
2023/07/15 01:50:09;;;;;;;5.43;3.50;;;27.00;79.10;;;;;;10865784;32;20326;-73
2023/07/15 01:56:11;;;;;;;8.32;3.03;;;27.00;79.20;;;;;;10856470;32;20039;-73
2023/07/15 02:02:13;;;;;;;5.82;3.90;;;27.00;79.00;;;;;;10870720;32;20043;-73
2023/07/15 02:08:15;;;;;;;3.53;2.33;;;27.00;79.10;;;;;;10857265;32;20023;-73
2023/07/15 02:14:17;;;;;;;5.60;3.45;;;27.00;78.90;;;;;;10870282;32;20105;-74
2023/07/15 02:20:19;;;;;;;6.50;3.08;;;26.90;79.20;;;;;;10869521;32;20047;-73
2023/07/15 02:26:21;;;;;;;7.82;3.40;;;26.90;79.20;;;;;;10869569;32;20027;-73
2023/07/15 02:32:39;;;;;;;4.32;2.92;;;26.90;78.80;;;;;;10869647;32;20082;-74
2023/07/15 02:38:41;;;;;;;3.97;2.47;;;26.90;78.70;;;;;;10852001;32;20046;-73
2023/07/15 02:44:42;;;;;;;5.82;3.33;;;26.80;78.80;;;;;;10869197;32;20027;-73
2023/07/15 02:50:45;;;;;;;4.47;2.92;;;26.80;78.60;;;;;;10850929;32;20031;-73
2023/07/15 02:56:47;;;;;;;4.78;2.60;;;26.70;78.90;;;;;;10842610;32;20062;-74
2023/07/15 03:02:49;;;;;;;3.58;2.17;;;26.60;79.10;;;;;;10868541;32;20058;-73
2023/07/15 03:08:52;;;;;;;4.55;2.40;;;26.60;79.10;;;;;;10867338;32;20031;-73
2023/07/15 03:14:54;;;;;;;3.42;2.58;;;26.50;79.10;;;;;;10868126;32;20047;-73
2023/07/15 03:20:57;;;;;;;4.85;3.22;;;26.60;79.20;;;;;;10868062;32;20062;-74
2023/07/15 03:26:59;;;;;;;2.80;1.90;;;26.60;79.20;;;;;;10867703;32;20051;-74
2023/07/15 03:33:01;;;;;;;3.17;2.00;;;26.50;79.30;;;;;;10867655;32;20027;-73
2023/07/15 03:39:03;;;;;;;5.40;2.87;;;26.30;79.30;;;;;;10867441;32;20047;-73
2023/07/15 03:45:06;;;;;;;3.55;2.15;;;26.30;79.50;;;;;;10867229;32;20024;-73
2023/07/15 03:51:07;;;;;;;2.17;1.45;;;26.30;79.50;;;;;;10867052;32;20012;-73
2023/07/15 03:57:10;;;;;;;5.37;2.10;;;26.40;79.70;;;;;;10866928;32;20050;-73
2023/07/15 04:03:12;;;;;;;3.92;2.42;;;26.40;79.80;;;;;;10866759;32;20034;-73
2023/07/15 04:09:16;;;;;;;2.50;1.55;;;26.40;79.80;;;;;;10852156;32;20032;-73
2023/07/15 04:15:18;;;;;;;4.03;1.98;;;26.40;79.70;;;;;;10866850;32;20024;-73
2023/07/15 04:21:19;;;;;;;2.12;1.70;;;26.40;79.40;;;;;;10865282;32;20054;-74
2023/07/15 04:27:21;;;;;;;3.00;1.65;;;26.30;79.60;;;;;;10866262;32;20047;-74
2023/07/15 04:33:23;;;;;;;3.15;1.70;;;26.30;79.80;;;;;;10866455;32;20442;-74
2023/07/15 04:39:27;;;;;;;3.33;1.83;;;26.30;79.80;;;;;;10852580;32;20035;-73
2023/07/15 04:45:30;;;;;;;5.68;2.03;;;26.30;79.90;;;;;;10873343;32;20031;-74
2023/07/15 04:51:32;;;;;;;3.37;1.80;;;26.30;79.90;;;;;;10873198;32;20020;-73
2023/07/15 04:57:34;;;;;;;2.12;1.52;;;26.50;79.90;;;;;;10859786;32;20059;-74
2023/07/15 05:03:36;;;;;;;5.37;2.30;;;26.60;80.50;;;;;;10854044;32;20039;-74
2023/07/15 05:09:39;;;;;;;5.47;1.95;;;26.60;80.40;;;;;;10872624;32;20062;-74
2023/07/15 05:15:42;;;;;;;3.47;1.70;;;26.70;80.50;;;;;;10872400;32;20020;-73
2023/07/15 05:21:44;;;;;;;2.40;1.42;;;26.80;80.80;;;;;;10868782;32;20077;-73
2023/07/15 05:27:46;;;;;;;3.42;1.73;;;26.90;80.90;;;;;;10871764;32;20056;-73
2023/07/15 05:33:48;;;;;;;1.87;1.17;;;26.90;80.60;;;;;;10871690;32;20015;-73
2023/07/15 05:39:50;;;;;;;2.97;1.75;;;27.00;80.60;;;;;;10867673;32;20457;-73
2023/07/15 05:45:52;;;;;;;2.80;1.48;;;27.10;80.60;;;;;;10871262;32;20028;-73
2023/07/15 05:51:54;;;;;;;1.25;1.00;;;27.20;80.50;;;;;;10870256;32;20047;-73
2023/07/15 05:57:56;;;;;;;2.53;1.20;;;27.30;80.40;;;;;;10869084;32;20023;-73
2023/07/15 06:03:59;;;;;;;1.87;1.15;;;27.50;80.60;;;;;;10870708;32;20024;-73
2023/07/15 06:10:02;;;;;;;5.72;1.48;;;27.70;80.50;;;;;;10870415;32;20330;-73
2023/07/15 06:16:04;;;;;;;2.58;1.23;;;27.80;80.60;;;;;;10867120;32;20059;-73
2023/07/15 06:22:07;;;;;;;1.52;1.10;;;27.90;80.10;;;;;;10869975;32;20027;-71
2023/07/15 06:28:09;;;;;;;1.40;0.90;;;28.00;79.70;;;;;;10856354;32;20544;-73
2023/07/15 06:34:11;;;;;;;1.17;1.02;;;28.00;79.30;;;;;;10869623;32;20046;-72
2023/07/15 06:40:16;;;;;;;2.50;0.93;;;28.20;79.30;;;;;;10869241;32;20019;-73
2023/07/15 06:46:19;;;;;;;1.40;0.90;;;28.30;78.80;;;;;;10869273;32;20341;-73
2023/07/15 06:52:21;;;;;;;2.22;0.98;;;28.30;78.60;;;;;;10868822;32;20027;-73
2023/07/15 06:58:23;;;;;;;3.45;1.70;;;28.40;78.60;;;;;;10868698;32;20028;-71
2023/07/15 07:04:25;;;;;;;2.97;1.45;;;28.50;78.50;;;;;;10868285;32;20402;-73
2023/07/15 07:10:27;;;;;;;2.97;1.60;;;28.50;78.10;;;;;;10855174;32;20050;-72
2023/07/15 07:16:29;;;;;;;2.80;1.40;;;28.50;78.10;;;;;;10866686;32;20046;-72
2023/07/15 07:22:31;;;;;;;2.50;1.27;;;28.60;77.90;;;;;;10867841;32;20055;-72
2023/07/15 07:28:49;;;;;;;1.62;1.17;;;28.70;78.10;;;;;;10872090;27;20028;-72
2023/07/15 07:34:51;;;;;;;3.22;1.10;;;28.80;77.90;;;;;;10848488;32;20035;-72
2023/07/15 07:40:53;;;;;;;8.55;2.67;;;28.90;77.90;;;;;;10830390;32;20028;-73
2023/07/15 07:47:18;;;;;;;1.75;1.00;;;28.90;75.90;;;;;;10830021;32;20024;-72
2023/07/15 07:53:20;;;;;;;4.25;1.37;;;29.10;76.00;;;;;;10828475;32;20028;-72
2023/07/15 07:59:22;;;;;;;2.53;1.70;;;29.10;75.20;;;;;;10829914;32;20012;-73
2023/07/15 08:05:24;;;;;;;3.90;1.73;;;29.20;74.50;;;;;;10816300;32;20480;-73
2023/07/15 08:11:26;;;;;;;4.50;2.08;;;29.20;74.20;;;;;;10829649;33;20012;-72
2023/07/15 08:17:29;;;;;;;7.78;1.67;;;29.20;73.40;;;;;;10833602;32;20016;-72
2023/07/15 08:23:31;;;;;;;4.40;1.55;;;29.30;72.80;;;;;;10823568;32;20332;-73
2023/07/15 08:29:34;;;;;;;2.83;1.95;;;29.40;72.00;;;;;;10836856;32;20046;-72
2023/07/15 08:35:36;;;;;;;3.15;1.60;;;29.60;70.90;;;;;;10836584;32;20027;-71
2023/07/15 08:41:40;;;;;;;3.78;1.75;;;29.70;71.10;;;;;;10836411;32;20040;-73
2023/07/15 08:47:44;;;;;;;4.93;1.50;;;29.80;71.10;;;;;;10833327;32;20335;-73
2023/07/15 08:53:48;;;;;;;4.12;1.85;;;29.90;70.50;;;;;;10835845;32;20334;-73
2023/07/15 08:59:54;;;;;;;3.28;1.42;;;30.00;69.60;;;;;;10865300;32;20323;-72
2023/07/15 09:05:56;;;;;;;6.53;2.27;;;30.20;68.80;;;;;;10872508;32;20330;-73
2023/07/15 09:12:03;;;;;;;2.55;1.52;;;30.30;68.20;;;;;;10855378;32;20062;-73
2023/07/15 09:18:29;;;;;;;;;;;30.50;67.50;;;;;;10859418;32;20027;-73
2023/07/15 09:24:33;;;;;;;2.25;1.45;;;30.60;67.80;;;;;;10858489;32;19945;-73
2023/07/15 09:30:39;;;;;;;4.18;1.87;;;30.70;66.90;;;;;;10858407;32;20051;-73
2023/07/15 09:36:58;;;;;;;4.15;1.83;;;30.80;65.20;;;;;;10857483;32;20012;-73
2023/07/15 09:43:00;;;;;;;4.65;2.35;;;30.80;66.00;;;;;;10871333;32;20346;-72
2023/07/15 09:49:02;;;;;;;3.10;2.05;;;31.00;66.20;;;;;;10870215;32;20299;-73
2023/07/15 09:55:23;;;;;;;2.03;1.62;;;31.10;66.00;;;;;;10870963;32;20061;-72
2023/07/15 10:01:47;;;;;;;3.53;1.85;;;31.30;66.10;;;;;;10870747;32;20441;-72
2023/07/15 10:07:51;;;;;;;2.53;1.10;;;31.40;65.30;;;;;;10870441;32;20023;-73
2023/07/15 10:20:55;;;;;;;4.53;2.17;;;31.60;64.30;;;;;;10871924;32;20322;-73
2023/07/15 10:27:01;;;;;;;4.40;2.37;;;31.60;63.40;;;;;;10870507;32;20394;-73
2023/07/15 10:33:12;;;;;;;2.55;1.60;;;31.70;63.30;;;;;;10856531;32;20042;-73
2023/07/15 10:39:17;;;;;;;2.42;1.75;;;31.80;63.60;;;;;;10869312;32;20047;-73
2023/07/15 10:45:33;;;;;;;5.57;2.10;;;31.90;62.30;;;;;;10857868;32;20046;-73
2023/07/15 10:51:36;;;;;;;4.17;1.97;;;32.10;62.10;;;;;;10869170;32;20058;-73
2023/07/15 10:57:38;;;;;;;4.47;1.85;;;32.30;61.50;;;;;;10869455;32;20322;-73
2023/07/15 11:03:42;;;;;;;5.43;2.20;;;32.30;61.00;;;;;;10863330;32;20031;-73
2023/07/15 11:09:44;;;;;;;5.10;2.75;;;32.50;60.40;;;;;;10869711;32;20050;-72
2023/07/15 11:15:46;;;;;;;5.93;2.65;;;32.60;59.70;;;;;;10869479;32;20081;-73
2023/07/15 11:21:48;;;;;;;4.35;2.03;;;32.70;58.20;;;;;;10869274;32;20020;-72
2023/07/15 11:27:54;;;;;;;5.25;2.78;;;32.80;57.80;;;;;;10868168;32;20027;-73
2023/07/15 11:33:57;;;;;;;6.97;2.17;;;32.90;58.10;;;;;;10868839;32;20051;-73
2023/07/15 11:39:59;;;;;;;3.28;2.00;;;33.10;57.30;;;;;;10853887;32;20346;-73
2023/07/15 11:46:03;;;;;;;4.22;2.78;;;33.40;56.70;;;;;;10868690;32;20046;-72
2023/07/15 11:52:19;;;;;;;5.95;2.55;;;33.70;56.00;;;;;;10865642;32;20035;-73
2023/07/15 11:58:46;;;;;;;5.62;2.90;;;33.80;55.60;;;;;;10865061;32;20020;-73
2023/07/15 12:04:48;;;;;;;;;;;33.90;59.40;;;;;;10868439;32;20434;-72
2023/07/15 12:11:01;;;;;;;4.87;2.67;;;34.00;57.50;;;;;;10868685;32;20308;-73
2023/07/15 12:17:03;;;;;;;5.95;3.08;;;34.00;56.30;;;;;;10867426;32;20019;-73
2023/07/15 12:23:25;;;;;;;3.25;1.92;;;34.10;55.20;;;;;;10866741;32;20074;-73
2023/07/15 12:29:27;;;;;;;7.35;2.87;;;34.20;54.60;;;;;;10866914;32;20019;-71
2023/07/15 12:35:30;;;;;;;5.78;3.40;;;34.30;54.00;;;;;;10853063;32;20027;-72
2023/07/15 12:41:34;;;;;;;4.37;2.65;;;34.40;53.70;;;;;;10840728;32;20350;-72
2023/07/15 12:47:35;;;;;;;5.68;3.30;;;34.40;53.60;;;;;;10867448;32;20417;-73
2023/07/15 12:53:53;;;;;;;3.97;2.62;;;34.30;53.40;;;;;;10867346;32;20024;-73
2023/07/15 12:59:55;;;;;;;5.25;2.85;;;34.40;53.30;;;;;;10853441;32;20012;-73
2023/07/15 13:05:57;;;;;;;6.32;3.28;;;34.30;53.90;;;;;;10873165;32;20322;-73
2023/07/15 13:11:59;;;;;;;6.43;3.70;;;34.30;54.60;;;;;;10873844;32;20012;-74
2023/07/15 13:18:01;;;;;;;5.18;3.40;;;34.50;54.10;;;;;;10873649;32;20020;-72
2023/07/15 13:24:04;;;;;;;6.87;2.87;;;34.60;54.50;;;;;;10859535;32;20042;-72
2023/07/15 13:30:07;;;;;;;8.82;3.72;;;34.40;54.50;;;;;;10858259;32;20063;-73
2023/07/15 13:36:09;;;;;;;7.28;3.78;;;34.40;55.10;;;;;;10846068;32;20304;-73
2023/07/15 13:42:13;;;;;;;9.55;4.45;;;34.30;57.00;;;;;;10871660;32;20015;-72
2023/07/15 13:48:15;;;;;;;7.22;3.95;;;34.30;58.80;;;;;;10857864;32;20061;-73
2023/07/15 13:54:17;;;;;;;7.12;3.83;;;34.30;57.60;;;;;;10868845;32;20043;-73
2023/07/15 14:00:19;;;;;;;11.93;4.18;;;34.30;58.20;;;;;;10871524;32;20326;-73
2023/07/15 14:06:20;;;;;;;8.27;4.05;;;34.20;60.60;;;;;;10857202;32;20424;-72
2023/07/15 14:12:23;;;;;;;9.18;3.55;;;34.10;61.20;;;;;;10871078;32;20020;-72
2023/07/15 14:18:25;;;;;;;6.40;3.95;;;34.00;59.90;;;;;;10867752;32;20042;-72
2023/07/15 14:24:27;;;;;;;7.97;4.47;;;34.10;59.20;;;;;;10856794;32;20345;-73
2023/07/15 14:30:29;;;;;;;8.43;3.55;;;34.10;59.70;;;;;;10869880;32;20065;-72
2023/07/15 14:36:31;;;;;;;5.35;3.30;;;34.10;59.00;;;;;;10869629;32;20020;-72
2023/07/15 14:42:33;;;;;;;8.05;4.12;;;34.30;58.40;;;;;;10869413;32;20410;-73
2023/07/15 14:48:38;;;;;;;8.07;4.15;;;34.30;57.60;;;;;;10868946;32;20068;-73
2023/07/15 14:54:40;;;;;;;11.05;3.83;;;34.30;58.50;;;;;;10867558;32;20440;-73
2023/07/15 15:00:42;;;;;;;8.88;3.87;;;34.00;61.90;;;;;;10868681;32;20039;-72
2023/07/15 15:06:44;;;;;;;10.82;3.83;;;33.90;60.40;;;;;;10868470;32;20038;-72
2023/07/15 15:12:46;;;;;;;11.02;4.75;;;33.90;60.90;;;;;;10868165;32;20047;-72
2023/07/15 15:18:49;;;;;;;8.00;3.87;;;33.80;63.30;;;;;;10868004;32;20042;-72
2023/07/15 15:24:51;;;;;;;5.35;3.47;;;33.80;63.20;;;;;;10867433;32;20020;-71
2023/07/15 15:30:55;;;;;;;7.53;3.40;;;33.80;63.60;;;;;;10894561;27;20045;-71
2023/07/15 15:36:57;;;;;;;8.63;3.50;;;33.80;62.70;;;;;;10928837;32;20031;-73
2023/07/15 15:42:59;;;;;;;9.80;3.42;;;33.80;62.20;;;;;;10929036;32;20401;-72
2023/07/15 15:49:01;;;;;;;8.77;3.40;;;33.90;61.90;;;;;;10942212;32;20443;-73
2023/07/15 15:55:04;;;;;;;7.78;4.40;;;33.80;62.30;;;;;;10928594;32;20038;-72
2023/07/15 16:01:06;;;;;;;7.35;3.20;;;33.80;63.70;;;;;;10928119;32;20034;-72
2023/07/15 16:07:09;;;;;;;4.28;2.92;;;33.70;63.70;;;;;;10907375;32;20393;-72
2023/07/15 16:13:11;;;;;;;5.12;2.47;;;33.70;63.30;;;;;;10900688;32;20015;-72
2023/07/15 16:19:13;;;;;;;6.90;3.50;;;33.80;63.00;;;;;;10904068;32;20016;-72
2023/07/15 16:25:16;;;;;;;9.48;4.53;;;33.80;65.50;;;;;;10903937;32;20090;-72
2023/07/15 16:31:18;;;;;;;5.95;3.78;;;33.70;66.00;;;;;;10903962;32;20026;-73
2023/07/15 16:37:20;;;;;;;5.10;3.15;;;33.60;63.70;;;;;;10906297;32;20020;-72
2023/07/15 16:43:22;;;;;;;7.85;2.95;;;33.50;64.50;;;;;;10911142;32;20016;-73
2023/07/15 16:49:25;;;;;;;5.28;2.75;;;33.50;63.30;;;;;;10910788;32;20299;-72
2023/07/15 16:55:27;;;;;;;4.15;2.67;;;33.60;62.90;;;;;;10893526;32;20049;-73
2023/07/15 17:01:29;;;;;;;7.45;3.42;;;33.60;62.00;;;;;;10884203;32;20035;-73
2023/07/15 17:07:31;;;;;;;6.62;3.05;;;33.60;62.40;;;;;;10910145;32;20015;-72
2023/07/15 17:13:35;;;;;;;13.40;4.10;;;33.50;62.70;;;;;;10896173;32;20027;-73
2023/07/15 17:19:37;;;;;;;5.65;2.37;;;33.60;62.20;;;;;;10909542;32;20427;-72
2023/07/15 17:25:40;;;;;;;4.90;2.45;;;33.50;62.40;;;;;;10909418;32;20392;-72
2023/07/15 17:31:42;;;;;;;4.65;2.42;;;33.40;61.90;;;;;;10909236;32;20049;-73
2023/07/15 17:37:44;;;;;;;6.75;3.00;;;33.50;61.50;;;;;;10909080;32;20042;-72
2023/07/15 17:43:48;;;;;;;5.68;3.80;;;33.50;62.40;;;;;;10909006;32;20046;-72
2023/07/15 17:49:50;;;;;;;4.20;2.60;;;33.40;62.80;;;;;;10908632;32;20295;-72
2023/07/15 17:55:52;;;;;;;7.03;3.58;;;33.30;64.20;;;;;;10919762;32;20023;-72
2023/07/15 18:01:54;;;;;;;5.47;2.65;;;33.30;64.60;;;;;;10932287;32;20046;-73
2023/07/15 18:07:57;;;;;;;7.47;3.47;;;33.30;65.10;;;;;;10945712;32;20018;-72
2023/07/15 18:13:59;;;;;;;13.05;3.22;;;33.20;65.10;;;;;;10945694;32;20019;-72
2023/07/15 18:20:01;;;;;;;3.47;2.47;;;32.90;65.30;;;;;;10945446;32;20010;-72
2023/07/15 18:26:03;;;;;;;8.88;2.97;;;32.60;65.70;;;;;;10931222;32;20054;-73
2023/07/15 18:32:06;;;;;;;6.35;2.17;;;32.50;66.00;;;;;;10944885;32;20014;-73
2023/07/15 18:38:08;;;;;;;4.97;2.78;;;32.40;67.00;;;;;;10944448;32;20015;-73
2023/07/15 18:44:10;;;;;;;7.53;3.22;;;32.30;68.00;;;;;;10944493;32;20038;-73
2023/07/15 18:50:12;;;;;;;3.62;2.35;;;32.10;68.10;;;;;;10944275;32;20049;-72
2023/07/15 18:56:14;;;;;;;7.30;3.00;;;32.10;68.50;;;;;;10943971;32;20041;-72
2023/07/15 19:02:17;;;;;;;5.97;2.90;;;32.00;69.40;;;;;;10943488;32;20027;-73
2023/07/15 19:08:19;;;;;;;11.07;3.62;;;31.80;70.50;;;;;;10943610;32;20345;-73
2023/07/15 19:14:21;;;;;;;2.47;2.08;;;31.70;70.90;;;;;;10929986;32;20018;-73
2023/07/15 19:20:23;;;;;;;3.35;1.52;;;31.60;71.40;;;;;;10943242;32;20336;-73
2023/07/15 19:26:26;;;;;;;3.42;2.05;;;31.60;71.60;;;;;;10943030;32;20062;-73
2023/07/15 19:32:28;;;;;;;8.38;2.53;;;31.60;72.50;;;;;;10903954;32;20031;-73
2023/07/15 19:38:32;;;;;;;3.80;1.87;;;31.50;73.10;;;;;;10901409;32;20020;-73
2023/07/15 19:44:37;;;;;;;3.92;2.35;;;31.50;72.90;;;;;;10904726;32;20011;-73
2023/07/15 19:50:40;;;;;;;3.22;1.90;;;31.40;72.90;;;;;;10904690;32;20042;-73
2023/07/15 19:56:42;;;;;;;3.33;2.15;;;31.30;73.10;;;;;;10898932;32;20023;-73
2023/07/15 20:02:44;;;;;;;4.70;2.17;;;31.30;73.30;;;;;;10903434;32;20019;-73
2023/07/15 20:08:46;;;;;;;3.08;2.12;;;31.30;74.20;;;;;;10904250;32;20073;-73
2023/07/15 20:14:52;;;;;;;4.82;2.25;;;31.30;74.20;;;;;;10903456;32;20038;-73
2023/07/15 20:20:54;;;;;;;5.45;2.50;;;31.20;74.20;;;;;;10902456;32;20054;-73
2023/07/15 20:26:56;;;;;;;6.60;2.30;;;31.10;74.70;;;;;;10903859;32;20113;-73
2023/07/15 20:32:58;;;;;;;3.62;2.33;;;30.90;75.60;;;;;;10902193;32;20337;-73
2023/07/15 20:39:00;;;;;;;5.50;2.25;;;30.90;75.40;;;;;;10902489;32;20027;-73
2023/07/15 20:45:03;;;;;;;4.12;2.53;;;30.80;75.50;;;;;;10903481;32;20015;-73
2023/07/15 20:51:05;;;;;;;3.97;2.17;;;30.80;75.80;;;;;;10903575;32;20043;-73
2023/07/15 20:57:07;;;;;;;5.60;3.05;;;30.80;75.60;;;;;;10902135;32;20385;-73
2023/07/15 21:03:11;;;;;;;9.27;2.92;;;30.70;75.50;;;;;;10903358;32;20020;-73
2023/07/15 21:09:13;;;;;;;7.05;3.05;;;30.60;76.20;;;;;;10901702;32;20035;-73
2023/07/15 21:15:15;;;;;;;7.68;3.03;;;30.60;76.20;;;;;;10903290;32;20020;-73
2023/07/15 21:21:18;;;;;;;2.97;2.00;;;30.60;76.10;;;;;;10896286;32;20015;-73
2023/07/15 21:27:20;;;;;;;3.10;2.17;;;30.50;76.40;;;;;;10910835;32;20027;-73
2023/07/15 21:33:22;;;;;;;3.50;1.92;;;30.50;76.50;;;;;;10947025;32;20333;-73
2023/07/15 21:39:24;;;;;;;3.83;2.75;;;30.50;76.50;;;;;;10946779;32;20330;-73
2023/07/15 21:45:26;;;;;;;4.25;2.28;;;30.30;76.60;;;;;;10946609;32;20478;-73
2023/07/15 21:51:28;;;;;;;3.53;2.50;;;30.30;77.30;;;;;;10943373;32;20393;-73
2023/07/15 21:57:30;;;;;;;6.12;2.47;;;30.30;77.20;;;;;;10946244;32;20011;-73
2023/07/15 22:03:32;;;;;;;4.43;3.10;;;30.20;77.20;;;;;;10941829;32;20007;-73
2023/07/15 22:09:37;;;;;;;5.05;2.60;;;30.20;77.50;;;;;;10945770;32;20317;-73
2023/07/15 22:15:39;;;;;;;5.32;2.53;;;30.20;77.40;;;;;;10945619;32;20027;-73
2023/07/15 22:21:40;;;;;;;5.20;2.67;;;30.20;77.30;;;;;;10945555;32;20015;-73
2023/07/15 22:27:42;;;;;;;4.05;2.60;;;30.20;77.30;;;;;;10945056;32;20349;-73
2023/07/15 22:33:44;;;;;;;4.50;2.30;;;30.10;77.10;;;;;;10929913;32;20027;-73
2023/07/15 22:39:46;;;;;;;6.50;3.25;;;30.00;77.20;;;;;;10944698;32;20046;-73
2023/07/15 22:45:48;;;;;;;5.28;2.40;;;29.90;77.50;;;;;;10931586;32;20038;-73
2023/07/15 22:51:50;;;;;;;7.00;2.87;;;29.90;77.50;;;;;;10945532;32;20019;-73
2023/07/15 22:57:52;;;;;;;5.60;2.78;;;29.90;77.40;;;;;;10944142;32;20322;-73
2023/07/15 23:03:54;;;;;;;3.97;2.67;;;29.80;77.40;;;;;;10941489;32;20390;-73
2023/07/15 23:09:57;;;;;;;8.98;4.07;;;29.80;77.50;;;;;;10943414;32;20050;-73
2023/07/15 23:15:59;;;;;;;3.97;2.58;;;29.80;77.60;;;;;;10943420;32;20019;-73
2023/07/15 23:22:01;;;;;;;5.20;2.83;;;29.80;77.60;;;;;;10941250;32;20023;-73
2023/07/15 23:28:03;;;;;;;5.00;3.20;;;29.70;77.70;;;;;;10548493;27;12050291;-73
2023/07/15 23:34:04;;;;;;;4.87;2.67;;;29.60;78.00;;;;;;10827538;32;20020;-73
2023/07/15 23:40:07;;;;;;;5.07;3.30;;;29.60;78.20;;;;;;10827272;32;20028;-73
2023/07/15 23:46:09;;;;;;;5.12;3.62;;;29.50;78.10;;;;;;10826608;32;20058;-73
2023/07/15 23:52:11;;;;;;;5.85;4.00;;;29.40;78.40;;;;;;10826811;32;20020;-73
2023/07/15 23:58:13;;;;;;;7.90;3.95;;;29.40;78.30;;;;;;10930751;32;20016;-73
